Time;durP1;ratioP1;P1;durP2;ratioP2;P2;SDS_P1;SDS_P2;PMS_P1;PMS_P2;Temp;Humidity;BMP_temperature;BMP_pressure;BME280_temperature;BME280_humidity;BME280_pressure;Samples;Min_cycle;Max_cycle;Signal;HPM_P1;HPM_P2
2022/10/10 00:00:29;;;;;;;6.18;3.45;;;7.30;99.90;;;;;;5091949;28;20020;-46
2022/10/10 00:02:55;;;;;;;6.28;2.67;;;7.20;99.90;;;;;;5091480;28;20060;-44
2022/10/10 00:05:20;;;;;;;6.78;2.75;;;7.30;99.90;;;;;;5092132;28;20042;-43
2022/10/10 00:07:46;;;;;;;6.13;3.00;;;7.30;99.90;;;;;;5092231;28;20036;-45
2022/10/10 00:10:11;;;;;;;7.82;3.13;;;7.20;99.90;;;;;;5091982;28;20556;-45
2022/10/10 00:12:37;;;;;;;6.43;3.13;;;7.20;99.90;;;;;;5091372;28;20028;-44
2022/10/10 00:15:03;;;;;;;5.65;3.22;;;7.20;99.90;;;;;;5091749;28;20099;-43
2022/10/10 00:17:28;;;;;;;6.47;3.03;;;7.10;99.90;;;;;;5091819;28;20051;-41
2022/10/10 00:19:54;;;;;;;6.50;3.00;;;7.10;99.90;;;;;;5091561;28;20468;-44
2022/10/10 00:22:19;;;;;;;7.25;2.88;;;7.10;99.90;;;;;;5090265;28;20111;-41
2022/10/10 00:24:44;;;;;;;5.88;2.85;;;7.10;99.90;;;;;;5089738;28;20074;-41
2022/10/10 00:27:10;;;;;;;4.82;2.70;;;7.00;99.90;;;;;;5079607;28;20040;-44
2022/10/10 00:29:35;;;;;;;7.93;3.53;;;7.00;99.90;;;;;;5091589;28;20080;-43
2022/10/10 00:32:01;;;;;;;5.80;3.47;;;7.00;99.90;;;;;;5091570;28;20484;-42
2022/10/10 00:34:27;;;;;;;6.63;3.20;;;7.00;99.90;;;;;;5091073;28;20024;-42
2022/10/10 00:36:52;;;;;;;6.03;3.03;;;7.00;99.90;;;;;;5091669;28;20016;-42
2022/10/10 00:39:18;;;;;;;6.47;3.15;;;7.00;99.90;;;;;;5091583;28;20521;-42
2022/10/10 00:41:43;;;;;;;5.90;2.85;;;7.00;99.90;;;;;;5091595;28;20027;-43
2022/10/10 00:44:12;;;;;;;9.73;3.50;;;7.00;99.90;;;;;;5089874;28;20016;-46
2022/10/10 00:46:38;;;;;;;7.38;3.22;;;7.00;99.90;;;;;;5079097;28;20070;-43
2022/10/10 00:49:09;;;;;;;5.05;3.25;;;7.00;99.90;;;;;;5086930;28;20039;-41
2022/10/10 00:51:35;;;;;;;10.18;3.78;;;7.00;99.90;;;;;;5089835;28;20046;-42
2022/10/10 00:54:06;;;;;;;7.22;3.42;;;7.00;99.90;;;;;;5090154;28;20441;-43
2022/10/10 00:56:42;;;;;;;8.63;3.28;;;7.00;99.90;;;;;;5090222;28;20028;-41
2022/10/10 00:59:10;;;;;;;11.10;3.50;;;7.10;99.90;;;;;;5090923;28;20091;-42
2022/10/10 01:01:36;;;;;;;8.65;3.58;;;7.10;99.90;;;;;;5090689;28;20052;-43
2022/10/10 01:04:02;;;;;;;9.60;3.53;;;7.10;99.90;;;;;;5090471;28;20093;-41
2022/10/10 01:06:28;;;;;;;9.82;4.13;;;7.10;99.90;;;;;;5090922;28;20028;-43
2022/10/10 01:08:55;;;;;;;8.50;4.05;;;7.10;99.90;;;;;;5090685;28;20028;-42
2022/10/10 01:11:21;;;;;;;10.57;3.97;;;7.20;99.90;;;;;;5090849;28;20028;-42
2022/10/10 01:14:17;;;;;;;8.13;3.70;;;7.20;99.90;;;;;;5088854;28;20538;-43
2022/10/10 01:16:56;;;;;;;6.60;3.38;;;7.20;99.90;;;;;;5072727;28;20024;-42
2022/10/10 01:19:36;;;;;;;12.52;3.95;;;7.20;99.90;;;;;;5090401;28;20016;-42
2022/10/10 01:22:01;;;;;;;8.43;3.90;;;7.20;99.90;;;;;;5089120;28;20050;-46
2022/10/10 01:24:54;;;;;;;13.52;4.68;;;7.20;99.90;;;;;;5090161;28;20060;-43
2022/10/10 01:27:29;;;;;;;7.80;3.72;;;7.20;99.90;;;;;;5081212;28;20028;-44
2022/10/10 01:30:00;;;;;;;10.05;4.40;;;7.30;99.90;;;;;;5089303;28;20337;-45
2022/10/10 01:32:36;;;;;;;14.82;4.57;;;7.30;99.90;;;;;;5089954;28;20035;-45
2022/10/10 01:35:35;;;;;;;11.15;4.53;;;7.30;99.90;;;;;;5088967;28;20545;-42
2022/10/10 01:38:16;;;;;;;11.98;4.82;;;7.30;99.90;;;;;;5090003;28;20017;-43
2022/10/10 01:41:02;;;;;;;11.52;4.25;;;7.30;99.90;;;;;;5089915;28;20153;-42
2022/10/10 01:43:29;;;;;;;8.75;4.32;;;7.30;99.90;;;;;;5089642;28;20617;-43
2022/10/10 01:45:54;;;;;;;11.68;4.43;;;7.20;99.90;;;;;;5089875;28;20032;-41
2022/10/10 01:48:28;;;;;;;6.70;4.10;;;7.20;99.90;;;;;;5088565;28;20081;-41
2022/10/10 01:51:18;;;;;;;8.75;4.18;;;7.20;99.90;;;;;;5089821;28;20052;-42
2022/10/10 01:53:59;;;;;;;15.48;4.78;;;7.10;99.90;;;;;;5088173;28;20531;-41
2022/10/10 01:56:27;;;;;;;8.48;4.05;;;7.10;99.90;;;;;;5084315;28;20031;-43
2022/10/10 01:58:52;;;;;;;13.18;5.40;;;7.10;99.90;;;;;;5085683;28;20377;-43
2022/10/10 02:01:39;;;;;;;14.65;4.70;;;7.10;99.90;;;;;;5089897;28;20031;-43
2022/10/10 02:04:15;;;;;;;8.82;4.35;;;7.10;99.90;;;;;;5089357;28;20107;-43
2022/10/10 02:06:50;;;;;;;14.32;4.95;;;7.10;99.90;;;;;;5089804;28;20126;-42
2022/10/10 02:09:23;;;;;;;11.30;4.70;;;7.10;99.90;;;;;;5089559;28;20024;-43
2022/10/10 02:11:49;;;;;;;11.52;4.40;;;7.10;99.90;;;;;;5089395;28;20043;-42
2022/10/10 02:14:22;;;;;;;8.50;4.65;;;7.00;99.90;;;;;;5089293;28;20030;-44
2022/10/10 02:16:51;;;;;;;8.40;4.15;;;7.00;99.90;;;;;;5089954;28;20064;-44
2022/10/10 02:19:20;;;;;;;11.97;5.27;;;7.00;99.90;;;;;;5088348;28;20052;-42
2022/10/10 02:21:47;;;;;;;10.23;5.00;;;7.00;99.90;;;;;;5089930;28;20020;-41
2022/10/10 02:24:13;;;;;;;11.68;4.90;;;7.00;99.90;;;;;;5089719;28;20425;-43
2022/10/10 02:26:45;;;;;;;13.82;5.25;;;7.00;99.90;;;;;;5072088;28;20073;-42
2022/10/10 02:29:17;;;;;;;11.02;5.00;;;7.10;99.90;;;;;;5081184;28;20105;-44
2022/10/10 02:31:55;;;;;;;10.85;4.55;;;7.00;99.90;;;;;;5089524;28;20032;-42
2022/10/10 02:34:25;;;;;;;10.57;5.25;;;7.10;99.90;;;;;;5089514;28;20029;-43
2022/10/10 02:36:59;;;;;;;9.02;4.80;;;7.10;99.90;;;;;;5089801;28;20487;-41
2022/10/10 02:39:29;;;;;;;13.52;5.35;;;7.20;99.90;;;;;;5088163;28;20020;-43
2022/10/10 02:41:54;;;;;;;16.98;5.40;;;7.30;99.90;;;;;;5088894;28;20016;-42
2022/10/10 02:44:21;;;;;;;12.75;4.53;;;7.30;99.90;;;;;;5088811;28;20103;-43
2022/10/10 02:46:47;;;;;;;10.38;4.22;;;7.40;99.90;;;;;;5089349;28;20197;-43
2022/10/10 02:49:12;;;;;;;11.38;4.70;;;7.40;99.90;;;;;;5089567;28;20504;-45
2022/10/10 02:51:38;;;;;;;10.30;5.22;;;7.40;99.90;;;;;;5088041;28;20396;-42
2022/10/10 02:54:05;;;;;;;13.40;4.43;;;7.50;99.90;;;;;;5088739;28;20020;-44
2022/10/10 02:56:31;;;;;;;7.80;4.65;;;7.50;99.90;;;;;;5072984;28;20107;-42
2022/10/10 02:58:56;;;;;;;8.13;4.63;;;7.50;99.90;;;;;;5080716;28;20631;-43
2022/10/10 03:01:23;;;;;;;9.45;4.32;;;7.50;99.90;;;;;;5087874;28;20380;-46
2022/10/10 03:03:48;;;;;;;12.90;4.90;;;7.40;99.90;;;;;;5088794;28;20024;-45
2022/10/10 03:06:14;;;;;;;6.57;3.95;;;7.40;99.90;;;;;;5089527;28;20451;-46
2022/10/10 03:08:39;;;;;;;7.53;4.07;;;7.40;99.90;;;;;;5081540;28;20467;-43
2022/10/10 03:11:06;;;;;;;7.93;4.43;;;7.40;99.90;;;;;;5059183;28;20056;-42
2022/10/10 03:13:31;;;;;;;7.38;3.70;;;7.40;99.90;;;;;;5057532;28;20033;-42
2022/10/10 03:15:57;;;;;;;7.32;4.63;;;7.40;99.90;;;;;;5058589;28;20496;-44
2022/10/10 03:18:23;;;;;;;12.15;4.40;;;7.40;99.90;;;;;;5058052;28;20054;-42
2022/10/10 03:20:54;;;;;;;7.97;4.00;;;7.30;99.90;;;;;;5061627;28;20028;-44
2022/10/10 03:23:20;;;;;;;10.25;4.75;;;7.20;99.90;;;;;;5062075;28;20024;-44
2022/10/10 03:25:46;;;;;;;8.35;4.25;;;7.20;99.90;;;;;;5060015;28;20458;-44
2022/10/10 03:28:12;;;;;;;8.63;4.15;;;7.20;99.90;;;;;;5048615;28;20031;-42
2022/10/10 03:30:38;;;;;;;7.32;4.78;;;7.20;99.90;;;;;;5060813;28;20024;-43
2022/10/10 03:33:04;;;;;;;10.40;4.40;;;7.10;99.90;;;;;;5061946;28;20028;-43
2022/10/10 03:35:30;;;;;;;6.90;4.43;;;7.10;99.90;;;;;;5064868;28;20024;-44
2022/10/10 03:37:56;;;;;;;9.25;4.65;;;7.10;99.90;;;;;;5062411;28;20083;-43
2022/10/10 03:40:22;;;;;;;11.07;4.28;;;7.10;99.90;;;;;;5060600;28;20524;-43
2022/10/10 03:42:48;;;;;;;5.82;4.00;;;7.10;99.90;;;;;;5061461;28;20028;-43
2022/10/10 03:45:13;;;;;;;13.32;5.18;;;7.10;99.90;;;;;;5061822;28;20021;-43
2022/10/10 03:47:38;;;;;;;5.95;4.40;;;7.00;99.90;;;;;;5060924;28;20399;-43
2022/10/10 03:50:05;;;;;;;8.90;4.43;;;7.00;99.90;;;;;;5069115;28;20481;-42
2022/10/10 03:52:30;;;;;;;6.43;4.68;;;7.00;99.90;;;;;;5063882;28;20115;-42
2022/10/10 03:54:55;;;;;;;11.38;5.20;;;7.00;99.90;;;;;;5062033;28;20497;-43
2022/10/10 03:57:21;;;;;;;6.97;4.82;;;7.00;99.90;;;;;;5059587;28;20033;-46
2022/10/10 03:59:47;;;;;;;10.70;4.95;;;7.00;99.90;;;;;;5061567;28;20528;-45
2022/10/10 04:02:12;;;;;;;16.38;5.25;;;7.00;99.90;;;;;;5071595;28;20025;-43
2022/10/10 04:04:37;;;;;;;16.98;5.28;;;7.10;99.90;;;;;;5077684;28;20020;-41
2022/10/10 04:07:03;;;;;;;12.35;4.57;;;7.10;99.90;;;;;;5088506;28;20479;-42
2022/10/10 04:09:28;;;;;;;8.23;4.65;;;7.00;99.90;;;;;;5091477;28;20043;-43
2022/10/10 04:11:54;;;;;;;10.23;5.60;;;7.10;99.90;;;;;;5091039;28;20537;-42
2022/10/10 04:14:20;;;;;;;7.68;5.25;;;7.10;99.90;;;;;;5091116;28;20024;-42
2022/10/10 04:16:45;;;;;;;7.43;4.88;;;7.10;99.90;;;;;;5091984;28;20054;-42
2022/10/10 04:19:10;;;;;;;12.48;5.15;;;7.00;99.90;;;;;;5091648;28;20569;-43
2022/10/10 04:21:36;;;;;;;9.75;4.28;;;7.00;99.90;;;;;;5091930;28;20056;-43
2022/10/10 04:24:01;;;;;;;8.35;4.40;;;7.00;99.90;;;;;;5091115;28;20028;-42
2022/10/10 04:26:27;;;;;;;7.15;4.32;;;7.00;99.90;;;;;;5080122;28;20035;-45
2022/10/10 04:28:52;;;;;;;11.90;5.95;;;7.00;99.90;;;;;;5083202;28;20024;-41
2022/10/10 04:31:18;;;;;;;13.13;6.38;;;7.00;99.90;;;;;;5090246;28;20063;-42
2022/10/10 04:33:43;;;;;;;7.32;4.95;;;7.10;99.90;;;;;;5090875;28;20707;-44
2022/10/10 04:36:09;;;;;;;9.38;5.25;;;7.10;99.90;;;;;;5091290;28;20103;-42
2022/10/10 04:38:34;;;;;;;13.20;5.50;;;7.10;99.90;;;;;;5091206;28;20053;-42
2022/10/10 04:41:00;;;;;;;11.48;5.25;;;7.10;99.90;;;;;;5090880;28;20016;-43
2022/10/10 04:43:25;;;;;;;11.68;4.63;;;7.10;99.90;;;;;;5090605;28;20028;-42
2022/10/10 04:45:51;;;;;;;6.85;3.85;;;7.10;99.90;;;;;;5091014;28;20030;-42
2022/10/10 04:48:16;;;;;;;9.27;4.55;;;7.10;99.90;;;;;;5074167;28;20618;-44
2022/10/10 04:50:42;;;;;;;8.15;4.57;;;7.10;99.90;;;;;;5085198;28;20017;-42
2022/10/10 04:53:07;;;;;;;12.88;5.20;;;7.10;99.90;;;;;;5088005;28;20423;-42
2022/10/10 04:55:33;;;;;;;9.85;4.82;;;7.20;99.90;;;;;;5058465;28;20016;-42
2022/10/10 04:57:59;;;;;;;10.23;4.70;;;7.20;99.90;;;;;;5060807;28;20047;-43
2022/10/10 05:00:25;;;;;;;10.13;4.97;;;7.20;99.90;;;;;;5059017;28;20383;-41
2022/10/10 05:02:51;;;;;;;6.63;4.13;;;7.20;99.90;;;;;;5058298;28;20064;-45
2022/10/10 05:05:16;;;;;;;8.80;3.80;;;7.20;99.90;;;;;;5062077;28;20125;-41
2022/10/10 05:07:42;;;;;;;8.02;4.07;;;7.10;99.90;;;;;;5055610;28;20025;-42
2022/10/10 05:10:08;;;;;;;5.68;4.22;;;7.10;99.90;;;;;;5051567;28;20028;-41
2022/10/10 05:12:33;;;;;;;6.93;4.15;;;7.00;99.90;;;;;;5051160;28;20068;-44
2022/10/10 05:14:59;;;;;;;15.95;5.40;;;7.00;99.90;;;;;;5051732;28;20033;-40
2022/10/10 05:17:24;;;;;;;10.98;5.25;;;7.00;99.90;;;;;;5058279;28;20043;-41
2022/10/10 05:19:50;;;;;;;11.80;4.82;;;6.90;99.90;;;;;;5083279;28;20043;-41
2022/10/10 05:22:16;;;;;;;7.07;4.63;;;6.90;99.90;;;;;;5091813;28;20027;-40
2022/10/10 05:24:41;;;;;;;9.02;4.72;;;6.90;99.90;;;;;;5091513;28;20050;-42
2022/10/10 05:27:07;;;;;;;12.05;5.45;;;6.90;99.90;;;;;;5082248;28;20044;-40
2022/10/10 05:29:32;;;;;;;7.65;4.60;;;7.00;99.90;;;;;;5062976;28;20063;-40
2022/10/10 05:31:58;;;;;;;8.63;4.80;;;7.00;99.90;;;;;;5060880;28;20071;-41
2022/10/10 05:34:23;;;;;;;10.00;4.68;;;6.90;99.90;;;;;;5063767;28;20024;-40
2022/10/10 05:36:48;;;;;;;9.45;4.60;;;6.90;99.90;;;;;;5064350;28;20053;-41
2022/10/10 05:39:14;;;;;;;8.80;5.43;;;7.00;99.90;;;;;;5080065;28;20466;-42
2022/10/10 05:41:40;;;;;;;7.80;4.88;;;6.90;99.90;;;;;;5074481;28;20056;-41
2022/10/10 05:44:05;;;;;;;6.95;4.72;;;6.90;99.90;;;;;;5079171;28;20040;-43
2022/10/10 05:46:30;;;;;;;6.55;4.55;;;6.90;99.90;;;;;;5083120;28;20032;-40
2022/10/10 05:48:56;;;;;;;7.35;4.38;;;6.90;99.90;;;;;;5086569;28;20032;-42
2022/10/10 05:51:22;;;;;;;7.90;4.22;;;6.90;99.90;;;;;;5082802;28;20030;-42
2022/10/10 05:53:48;;;;;;;8.85;4.63;;;6.90;99.90;;;;;;5082051;28;20021;-42
2022/10/10 05:56:15;;;;;;;9.63;5.10;;;6.90;99.90;;;;;;5077969;28;20103;-40
2022/10/10 05:58:41;;;;;;;10.82;4.90;;;6.80;99.90;;;;;;5077913;28;20073;-41
2022/10/10 06:01:07;;;;;;;10.57;4.68;;;6.90;99.90;;;;;;5069706;28;20032;-41
2022/10/10 06:03:33;;;;;;;8.60;4.90;;;6.90;99.90;;;;;;5076893;28;20028;-41
2022/10/10 06:06:00;;;;;;;9.95;4.63;;;6.90;99.90;;;;;;5071006;28;20462;-42
2022/10/10 06:08:25;;;;;;;7.93;4.85;;;7.00;99.90;;;;;;5069405;28;20047;-40
2022/10/10 06:10:52;;;;;;;8.63;4.68;;;7.00;99.90;;;;;;5069127;28;20024;-41
2022/10/10 06:13:19;;;;;;;19.60;7.25;;;7.10;99.90;;;;;;5068124;28;20039;-44
2022/10/10 06:15:49;;;;;;;14.80;5.68;;;7.20;99.90;;;;;;5069393;28;20042;-42
2022/10/10 06:18:14;;;;;;;10.45;4.95;;;7.30;99.90;;;;;;5064537;28;20029;-41
2022/10/10 06:20:40;;;;;;;11.20;4.80;;;7.30;99.90;;;;;;5080984;28;20056;-41
2022/10/10 06:23:07;;;;;;;9.00;5.20;;;7.40;99.90;;;;;;5054295;28;20083;-42
2022/10/10 06:25:35;;;;;;;10.55;4.65;;;7.40;99.90;;;;;;5056446;28;20133;-41
2022/10/10 06:28:00;;;;;;;8.05;4.43;;;7.50;99.90;;;;;;5060737;28;20512;-41
2022/10/10 06:30:26;;;;;;;12.30;4.72;;;7.60;99.90;;;;;;5054884;28;20025;-41
2022/10/10 06:32:52;;;;;;;10.25;4.93;;;7.70;99.90;;;;;;5056135;28;20033;-42
2022/10/10 06:35:17;;;;;;;8.05;4.30;;;7.80;99.90;;;;;;5079136;28;20048;-43
2022/10/10 06:37:43;;;;;;;5.65;3.70;;;7.90;99.90;;;;;;5089014;28;20024;-42
2022/10/10 06:40:09;;;;;;;8.95;4.53;;;8.00;99.90;;;;;;5089294;28;20100;-42
2022/10/10 06:42:34;;;;;;;9.77;3.88;;;8.00;99.90;;;;;;5088678;28;20115;-41
2022/10/10 06:45:00;;;;;;;9.80;3.90;;;8.10;99.90;;;;;;5086654;28;20483;-42
2022/10/10 06:47:26;;;;;;;10.60;4.10;;;8.10;99.90;;;;;;5079328;28;20465;-42
2022/10/10 06:49:51;;;;;;;10.10;4.03;;;8.20;99.90;;;;;;5073434;28;20020;-42
2022/10/10 06:52:16;;;;;;;7.20;3.95;;;8.20;99.90;;;;;;5078324;28;20043;-41
2022/10/10 06:54:42;;;;;;;10.43;4.13;;;8.30;99.90;;;;;;5089740;28;20042;-42
2022/10/10 06:57:08;;;;;;;7.97;3.88;;;8.40;99.90;;;;;;5072484;28;20032;-40
2022/10/10 06:59:33;;;;;;;6.00;3.83;;;8.40;99.90;;;;;;5075905;28;20087;-45
2022/10/10 07:01:59;;;;;;;10.38;3.90;;;8.50;99.90;;;;;;5070611;28;20032;-42
2022/10/10 07:04:25;;;;;;;9.48;3.83;;;8.60;99.90;;;;;;5084185;28;20475;-41
2022/10/10 07:06:50;;;;;;;4.82;3.38;;;8.60;99.90;;;;;;5087498;28;20024;-42
2022/10/10 07:09:17;;;;;;;5.88;3.55;;;8.70;99.90;;;;;;5073432;28;20036;-42
2022/10/10 07:11:44;;;;;;;6.15;3.40;;;8.80;99.90;;;;;;5084540;28;20101;-42
2022/10/10 07:14:10;;;;;;;6.88;3.20;;;8.80;99.90;;;;;;5077007;28;20094;-41
2022/10/10 07:16:35;;;;;;;3.80;3.17;;;8.90;99.90;;;;;;5083870;28;20012;-41
2022/10/10 07:19:01;;;;;;;6.80;3.75;;;9.00;99.90;;;;;;5084287;28;20032;-41
2022/10/10 07:21:26;;;;;;;6.05;2.80;;;9.00;99.90;;;;;;5092677;28;20024;-42
2022/10/10 07:23:52;;;;;;;6.78;2.85;;;9.10;99.90;;;;;;5092296;28;20020;-44
2022/10/10 07:26:21;;;;;;;5.47;3.40;;;9.10;99.90;;;;;;5085898;28;20147;-44
2022/10/10 07:28:47;;;;;;;8.35;3.67;;;9.20;99.90;;;;;;5075345;28;20070;-42
2022/10/10 07:31:13;;;;;;;8.80;3.00;;;9.30;99.90;;;;;;5079706;28;20024;-42
2022/10/10 07:33:44;;;;;;;9.23;3.75;;;9.40;99.90;;;;;;5082528;28;20081;-42
2022/10/10 07:36:10;;;;;;;6.95;3.63;;;9.50;99.90;;;;;;5082282;28;20025;-43
2022/10/10 07:38:36;;;;;;;6.75;3.20;;;9.60;99.90;;;;;;5083817;28;20024;-43
2022/10/10 07:41:11;;;;;;;5.13;3.20;;;9.70;99.90;;;;;;5092347;28;20023;-42
2022/10/10 07:43:37;;;;;;;4.82;2.88;;;9.70;99.90;;;;;;5091880;28;20038;-44
2022/10/10 07:46:03;;;;;;;5.53;3.10;;;9.80;99.90;;;;;;5080271;28;20044;-42
2022/10/10 07:48:29;;;;;;;8.95;4.57;;;9.90;99.90;;;;;;5084543;28;20030;-41
2022/10/10 07:50:55;;;;;;;9.85;4.82;;;10.10;99.90;;;;;;5076309;28;20045;-42
2022/10/10 07:53:20;;;;;;;8.07;4.10;;;10.20;99.90;;;;;;5081965;28;20452;-42
2022/10/10 07:55:46;;;;;;;8.55;3.38;;;10.30;99.90;;;;;;5082493;28;20021;-41
2022/10/10 07:58:12;;;;;;;7.88;3.50;;;10.50;99.90;;;;;;5078429;28;21313;-45
2022/10/10 08:00:41;;;;;;;11.55;3.88;;;10.60;99.90;;;;;;5083505;28;20499;-43
2022/10/10 08:03:08;;;;;;;12.27;4.03;;;10.80;99.90;;;;;;5085738;28;20072;-43
2022/10/10 08:05:38;;;;;;;6.53;3.47;;;10.90;99.90;;;;;;5084595;28;20024;-43
2022/10/10 08:08:03;;;;;;;10.00;3.22;;;11.10;99.90;;;;;;5080469;28;20085;-41
2022/10/10 08:10:29;;;;;;;5.28;3.35;;;11.30;99.90;;;;;;5090228;28;20028;-42
2022/10/10 08:12:54;;;;;;;8.57;3.70;;;11.40;99.90;;;;;;5090615;28;20040;-41
2022/10/10 08:15:20;;;;;;;7.22;3.00;;;11.50;99.90;;;;;;5091343;28;20473;-41
2022/10/10 08:17:45;;;;;;;5.40;3.13;;;11.50;99.90;;;;;;5081791;28;20025;-42
2022/10/10 08:20:11;;;;;;;5.15;3.17;;;11.60;99.90;;;;;;5075326;28;20047;-42
2022/10/10 08:22:36;;;;;;;12.45;3.67;;;11.80;99.90;;;;;;5072351;28;20039;-42
2022/10/10 08:25:02;;;;;;;6.82;3.00;;;11.90;99.90;;;;;;5088246;28;20038;-43
2022/10/10 08:27:27;;;;;;;6.07;2.95;;;11.90;99.90;;;;;;5074898;28;20290;-44
2022/10/10 08:29:53;;;;;;;7.35;3.45;;;12.00;99.90;;;;;;5064668;28;20047;-44
2022/10/10 08:32:18;;;;;;;7.38;3.15;;;12.00;99.90;;;;;;5079549;28;20021;-44
2022/10/10 08:34:44;;;;;;;10.10;3.05;;;12.10;99.90;;;;;;5090964;28;20024;-42
2022/10/10 08:37:09;;;;;;;8.18;3.58;;;12.30;99.90;;;;;;5080506;28;20096;-42
2022/10/10 08:39:35;;;;;;;7.78;3.33;;;12.50;99.90;;;;;;5068457;28;20044;-42
2022/10/10 08:42:01;;;;;;;5.60;3.08;;;12.60;99.90;;;;;;5068103;28;20047;-41
2022/10/10 08:45:01;;;;;;;6.55;3.25;;;12.90;99.90;;;;;;5080168;28;20123;-43
2022/10/10 08:47:50;;;;;;;7.05;2.83;;;13.60;99.90;;;;;;5066846;28;20124;-41
2022/10/10 08:50:22;;;;;;;11.85;3.28;;;15.20;99.90;;;;;;5083160;28;20032;-45
2022/10/10 08:53:10;;;;;;;8.35;2.70;;;16.50;99.00;;;;;;5071097;28;20506;-42
2022/10/10 08:55:39;;;;;;;5.93;2.40;;;18.60;97.60;;;;;;5076653;28;20028;-46
2022/10/10 08:58:19;;;;;;;4.68;2.42;;;20.60;91.80;;;;;;5075579;28;20012;-44
2022/10/10 09:00:53;;;;;;;4.68;2.72;;;21.90;83.20;;;;;;5072786;28;20024;-44
2022/10/10 09:03:34;;;;;;;3.47;2.03;;;23.20;79.00;;;;;;5079497;28;20111;-43
2022/10/10 09:06:05;;;;;;;3.90;2.10;;;24.60;75.80;;;;;;5071338;28;20055;-45
2022/10/10 09:09:14;;;;;;;8.88;2.25;;;25.50;67.70;;;;;;5082126;28;20024;-43
2022/10/10 09:11:47;;;;;;;7.97;2.60;;;26.00;62.60;;;;;;5089412;28;20025;-43
2022/10/10 09:14:40;;;;;;;3.75;1.90;;;25.30;62.60;;;;;;5089097;28;20104;-43
2022/10/10 09:17:49;;;;;;;6.00;2.40;;;25.80;61.90;;;;;;5080666;28;20039;-43
2022/10/10 09:20:36;;;;;;;4.18;2.17;;;26.00;60.60;;;;;;5020188;28;20602;-45
2022/10/10 09:23:17;;;;;;;6.75;2.80;;;24.90;60.60;;;;;;5073587;28;20044;-47
2022/10/10 09:25:49;;;;;;;7.38;2.45;;;23.50;63.20;;;;;;5089009;28;20032;-43
2022/10/10 09:28:28;;;;;;;4.45;2.58;;;23.60;66.30;;;;;;5073418;28;20078;-44
2022/10/10 09:30:57;;;;;;;2.95;1.77;;;25.40;64.60;;;;;;5072968;28;20032;-45
2022/10/10 09:33:40;;;;;;;4.78;2.70;;;26.00;62.60;;;;;;5074129;28;20016;-42
2022/10/10 09:36:11;;;;;;;6.10;2.85;;;27.30;59.30;;;;;;5086515;28;20024;-44
2022/10/10 09:38:45;;;;;;;5.47;2.92;;;27.00;59.90;;;;;;5088937;28;20028;-47
2022/10/10 09:41:17;;;;;;;10.80;2.70;;;26.50;59.30;;;;;;5089014;28;20051;-44
2022/10/10 09:43:43;;;;;;;9.98;2.72;;;27.00;58.40;;;;;;5088386;28;20028;-42
2022/10/10 09:46:09;;;;;;;3.55;2.17;;;27.90;57.20;;;;;;5077960;28;20025;-47
2022/10/10 09:48:39;;;;;;;6.45;2.85;;;28.30;56.90;;;;;;5080381;28;20125;-44
2022/10/10 09:51:11;;;;;;;4.50;2.40;;;28.60;54.40;;;;;;5089229;28;20442;-47
2022/10/10 09:53:37;;;;;;;5.25;2.78;;;27.60;56.20;;;;;;5078143;28;20106;-42
2022/10/10 09:56:04;;;;;;;3.75;2.30;;;26.00;58.90;;;;;;5074545;28;20450;-46
2022/10/10 09:58:37;;;;;;;3.95;2.33;;;26.50;59.60;;;;;;5072763;28;20064;-43
2022/10/10 10:01:14;;;;;;;5.75;3.03;;;27.10;57.40;;;;;;5085629;28;20024;-42
2022/10/10 10:03:40;;;;;;;7.93;2.90;;;26.40;58.00;;;;;;5087283;28;20059;-43
2022/10/10 10:06:13;;;;;;;7.30;3.67;;;26.70;58.70;;;;;;5079443;28;20133;-44
2022/10/10 10:08:40;;;;;;;8.43;3.35;;;27.50;57.00;;;;;;5082914;28;20028;-43
2022/10/10 10:11:22;;;;;;;8.02;3.42;;;27.70;57.40;;;;;;5088718;28;20021;-43
2022/10/10 10:13:54;;;;;;;7.05;3.47;;;28.30;57.40;;;;;;5088319;28;20040;-44
2022/10/10 10:16:29;;;;;;;4.88;3.22;;;28.10;55.20;;;;;;5065391;28;20527;-44
2022/10/10 10:18:54;;;;;;;5.97;3.30;;;28.40;55.30;;;;;;5080327;28;20028;-43
2022/10/10 10:21:25;;;;;;;7.38;3.70;;;27.60;56.70;;;;;;5088755;28;20039;-42
2022/10/10 10:24:20;;;;;;;6.95;3.53;;;28.30;57.20;;;;;;5088317;28;20024;-43
2022/10/10 10:26:47;;;;;;;7.90;2.55;;;28.40;56.00;;;;;;5078464;28;20421;-43
2022/10/10 10:29:32;;;;;;;5.93;2.85;;;28.90;54.80;;;;;;5054216;28;20060;-44
2022/10/10 10:32:10;;;;;;;5.15;2.80;;;29.40;55.30;;;;;;5084323;28;20059;-41
2022/10/10 10:35:04;;;;;;;9.13;3.17;;;30.20;55.50;;;;;;5085728;28;20033;-43
2022/10/10 10:37:39;;;;;;;10.00;2.95;;;29.20;51.70;;;;;;5051935;28;20039;-45
2022/10/10 10:40:32;;;;;;;6.47;2.80;;;28.90;53.60;;;;;;5052521;28;20429;-42
2022/10/10 10:43:28;;;;;;;4.35;2.53;;;30.20;52.10;;;;;;5071000;28;20036;-44
2022/10/10 10:46:09;;;;;;;6.57;3.28;;;30.60;52.00;;;;;;5059562;28;20029;-46
2022/10/10 10:49:00;;;;;;;3.92;2.47;;;28.60;52.00;;;;;;5073632;28;20031;-46
2022/10/10 10:51:50;;;;;;;8.23;3.25;;;28.00;54.20;;;;;;5073791;28;20036;-43
2022/10/10 10:54:47;;;;;;;6.13;2.67;;;25.90;56.50;;;;;;5089259;28;20028;-42
2022/10/10 10:57:19;;;;;;;6.22;2.72;;;27.40;56.40;;;;;;5082120;28;20021;-45
2022/10/10 10:59:59;;;;;;;5.43;2.60;;;28.30;55.00;;;;;;5065806;28;20052;-44
2022/10/10 11:03:01;;;;;;;4.57;2.40;;;29.80;54.30;;;;;;5061680;28;20037;-44
2022/10/10 11:05:38;;;;;;;7.55;2.85;;;30.30;54.00;;;;;;5065047;28;20032;-45
2022/10/10 11:08:10;;;;;;;2.55;2.10;;;30.20;52.50;;;;;;5082170;28;20032;-47
2022/10/10 11:10:41;;;;;;;7.43;2.80;;;29.70;53.50;;;;;;5074989;28;20455;-45
2022/10/10 11:13:33;;;;;;;5.22;2.67;;;29.70;52.00;;;;;;5072917;28;20075;-44
2022/10/10 11:16:10;;;;;;;6.47;2.30;;;29.40;54.10;;;;;;5073780;28;20023;-41
2022/10/10 11:18:43;;;;;;;5.70;3.10;;;29.30;53.30;;;;;;5070344;28;20024;-47
2022/10/10 11:21:22;;;;;;;6.50;3.28;;;28.90;51.90;;;;;;5063315;28;20470;-43
2022/10/10 11:23:55;;;;;;;4.85;2.50;;;25.50;57.30;;;;;;5083865;28;20174;-43
2022/10/10 11:26:29;;;;;;;6.03;3.05;;;27.10;57.60;;;;;;5074260;28;20398;-41
2022/10/10 11:28:57;;;;;;;6.55;2.70;;;27.40;55.70;;;;;;5076774;28;20059;-43
2022/10/10 11:31:34;;;;;;;4.47;2.72;;;27.50;56.00;;;;;;5072024;28;20425;-46
2022/10/10 11:34:06;;;;;;;6.03;3.13;;;28.30;56.30;;;;;;5076569;28;20093;-41
2022/10/10 11:36:36;;;;;;;10.43;3.08;;;28.00;54.70;;;;;;5080293;28;20106;-43
2022/10/10 11:39:11;;;;;;;4.95;2.83;;;27.90;55.00;;;;;;5088240;28;20598;-43
2022/10/10 11:41:44;;;;;;;10.38;3.33;;;27.90;55.70;;;;;;5091808;28;20122;-45
2022/10/10 11:44:22;;;;;;;5.40;2.65;;;27.40;57.20;;;;;;5092210;28;20027;-45
2022/10/10 11:47:13;;;;;;;5.15;2.63;;;28.30;56.30;;;;;;5075378;28;20035;-45
2022/10/10 11:49:46;;;;;;;8.07;2.80;;;28.50;54.80;;;;;;5052115;28;20076;-42
2022/10/10 11:52:17;;;;;;;6.50;2.78;;;28.80;54.50;;;;;;5073042;28;20091;-45
2022/10/10 11:54:54;;;;;;;9.55;2.90;;;28.70;54.40;;;;;;5083662;28;20024;-44
2022/10/10 11:57:32;;;;;;;6.18;2.97;;;29.40;54.50;;;;;;5073569;28;20032;-45
2022/10/10 12:00:06;;;;;;;5.95;2.63;;;28.50;53.40;;;;;;5067890;28;20493;-42
2022/10/10 12:02:36;;;;;;;8.98;2.90;;;28.40;54.30;;;;;;5072142;28;20024;-44
2022/10/10 12:05:07;;;;;;;8.52;3.17;;;27.90;54.80;;;;;;5070280;28;20017;-43
2022/10/10 12:07:51;;;;;;;6.97;2.85;;;26.70;55.30;;;;;;5071743;28;20511;-42
2022/10/10 12:10:33;;;;;;;6.93;2.60;;;26.70;55.70;;;;;;5067853;28;20033;-43
2022/10/10 12:13:21;;;;;;;7.60;2.60;;;26.50;56.60;;;;;;5076021;28;20024;-44
2022/10/10 12:15:50;;;;;;;6.07;2.53;;;26.40;57.30;;;;;;5065394;28;20230;-42
2022/10/10 12:18:30;;;;;;;10.27;2.63;;;25.90;57.40;;;;;;5061704;28;20031;-46
2022/10/10 12:21:04;;;;;;;9.93;2.50;;;25.70;58.30;;;;;;5063483;28;20160;-44
2022/10/10 12:23:31;;;;;;;5.75;2.35;;;25.60;59.90;;;;;;5060320;28;20083;-41
2022/10/10 12:25:57;;;;;;;5.95;2.40;;;25.50;57.70;;;;;;5051163;28;20017;-42
2022/10/10 12:28:35;;;;;;;7.22;2.60;;;25.10;58.40;;;;;;5073377;28;20035;-43
2022/10/10 12:31:04;;;;;;;6.28;1.80;;;24.80;61.20;;;;;;5076549;28;20082;-41
2022/10/10 12:33:32;;;;;;;8.32;2.90;;;24.90;60.90;;;;;;5075416;28;20031;-42
2022/10/10 12:36:39;;;;;;;9.75;2.63;;;24.40;61.90;;;;;;5087873;28;20035;-43
2022/10/10 12:39:05;;;;;;;7.72;2.20;;;24.40;61.60;;;;;;5078792;28;20021;-46
2022/10/10 12:41:55;;;;;;;4.18;2.42;;;24.40;62.70;;;;;;5090975;28;20103;-45
2022/10/10 12:44:44;;;;;;;4.55;2.47;;;24.60;60.70;;;;;;5078570;28;20020;-44
2022/10/10 12:47:15;;;;;;;11.05;2.55;;;24.50;61.60;;;;;;5070166;28;20029;-43
2022/10/10 12:49:55;;;;;;;9.27;3.00;;;24.40;62.20;;;;;;5082657;28;20027;-44
2022/10/10 12:52:43;;;;;;;4.78;2.38;;;24.00;63.20;;;;;;5075099;28;20369;-45
2022/10/10 12:55:21;;;;;;;10.23;3.10;;;23.80;64.60;;;;;;5082817;28;20760;-44
2022/10/10 12:57:48;;;;;;;9.32;2.53;;;23.70;64.00;;;;;;5091501;28;20024;-42
2022/10/10 13:00:18;;;;;;;12.23;2.80;;;23.80;62.80;;;;;;5076205;28;20021;-46
2022/10/10 13:02:48;;;;;;;7.68;2.63;;;23.60;63.60;;;;;;5082552;28;20114;-45
2022/10/10 13:05:19;;;;;;;6.03;3.08;;;23.50;63.50;;;;;;5083631;28;20024;-42
2022/10/10 13:07:46;;;;;;;12.65;2.80;;;23.40;64.70;;;;;;5075559;28;20029;-45